createdAt,value
2018-04-27T04:27:27.086Z,15
2018-04-27T04:27:47.264Z,15
2018-04-27T04:28:07.427Z,15
2018-04-27T04:28:27.583Z,15
2018-04-27T04:28:47.751Z,15
2018-04-27T04:29:07.922Z,15
2018-04-27T04:34:40.200Z,15
2018-04-27T04:35:00.401Z,15
2018-04-27T04:37:08.573Z,15
2018-04-27T04:37:28.731Z,15
2018-04-27T04:37:48.902Z,15
2018-04-27T04:38:09.059Z,15
2018-04-27T04:38:29.335Z,15
2018-04-27T04:38:49.504Z,15
2018-04-27T04:40:33.076Z,20
2018-04-27T04:40:53.242Z,20
2018-04-27T04:41:13.459Z,20
2018-04-27T04:41:33.647Z,20
2018-04-27T04:41:53.805Z,20
2018-04-27T04:42:13.966Z,20
2018-04-27T04:42:34.131Z,20
2018-04-27T04:42:54.272Z,20
2018-04-27T04:43:14.433Z,20
2018-04-27T04:43:34.618Z,20
2018-04-27T04:43:54.784Z,20
2018-04-27T04:44:14.954Z,20
2018-04-27T04:44:35.116Z,20
2018-04-27T04:44:55.261Z,20
2018-04-27T04:45:15.508Z,20
2018-04-27T04:45:35.693Z,20
2018-04-27T04:45:55.868Z,20
2018-04-27T04:46:16.034Z,20
2018-04-27T04:46:36.211Z,20
2018-04-27T04:46:56.389Z,20
2018-04-27T04:47:16.554Z,20
2018-04-27T04:47:36.709Z,20
2018-04-27T04:47:56.884Z,20
2018-04-27T04:48:17.051Z,20
2018-04-27T04:48:37.239Z,20
2018-04-27T04:48:57.424Z,20
2018-04-27T04:49:17.611Z,20
2018-04-27T04:49:37.826Z,20
2018-04-27T04:49:58.017Z,20
2018-04-27T04:50:18.190Z,20
2018-04-27T04:50:38.348Z,20
2018-04-27T04:50:58.530Z,25
2018-04-27T04:51:18.704Z,25
2018-04-27T04:51:38.858Z,25
2018-04-27T04:51:59.039Z,25
2018-04-27T04:52:19.404Z,25
2018-04-27T04:52:39.508Z,25
2018-04-27T04:52:59.675Z,25
2018-04-27T04:53:19.826Z,25
2018-04-27T04:53:40.004Z,25
2018-04-27T04:54:00.158Z,25
2018-04-27T04:54:20.304Z,25
2018-04-27T04:54:40.467Z,25
2018-04-27T04:55:00.610Z,25
2018-04-27T04:55:20.795Z,25
2018-04-27T04:55:40.966Z,25
2018-04-27T04:56:01.191Z,25
2018-04-27T04:56:21.389Z,25
2018-04-27T04:56:41.525Z,25
2018-04-27T04:57:01.684Z,25
2018-04-27T04:57:21.845Z,25
2018-04-27T04:57:42.026Z,25
2018-04-27T04:58:02.232Z,25
2018-04-27T04:58:22.392Z,25
2018-04-27T04:58:42.550Z,25
2018-04-27T04:59:02.721Z,25
2018-04-27T04:59:22.935Z,25
2018-04-27T04:59:43.091Z,25
2018-04-27T05:00:03.260Z,25
2018-04-27T05:00:23.507Z,25
2018-04-27T05:00:43.709Z,25
2018-04-27T05:01:03.906Z,25
2018-04-27T05:01:24.079Z,25
2018-04-27T05:01:44.244Z,25
2018-04-27T05:02:04.402Z,25
2018-04-27T05:02:24.567Z,25
2018-04-27T05:02:44.735Z,25
2018-04-27T05:03:05.062Z,25
2018-04-27T05:03:25.141Z,25
2018-04-27T05:03:45.339Z,25
2018-04-27T05:04:05.522Z,25
2018-04-27T05:04:25.699Z,25
2018-04-27T05:04:45.871Z,25
2018-04-27T05:05:06.030Z,25
2018-04-27T05:05:26.198Z,25
2018-04-27T05:05:46.382Z,25
2018-04-27T05:06:06.525Z,25
2018-04-27T05:06:26.713Z,25
2018-04-27T05:06:46.868Z,25
2018-04-27T05:07:07.043Z,25
2018-04-27T05:07:27.199Z,25
2018-04-27T05:07:47.373Z,25
2018-04-27T05:08:07.539Z,25
2018-04-27T05:08:27.716Z,25
2018-04-27T05:08:47.891Z,25
2018-04-27T05:09:08.079Z,25
2018-04-27T05:09:28.255Z,25
2018-04-27T05:09:48.427Z,25
2018-04-27T05:10:08.542Z,25
2018-04-27T05:10:28.775Z,25
2018-04-27T05:10:49.055Z,25
2018-04-27T05:11:09.214Z,25
2018-04-27T05:11:29.396Z,25
2018-04-27T05:11:49.563Z,25
2018-04-27T05:12:09.743Z,25
2018-04-27T05:12:29.920Z,25
2018-04-27T05:12:50.085Z,25
2018-04-27T05:13:10.262Z,25
2018-04-27T05:13:30.449Z,25
2018-04-27T05:13:50.628Z,25
2018-04-27T05:14:10.776Z,25
2018-04-27T05:14:30.957Z,25
2018-04-27T05:14:51.122Z,25
2018-04-27T05:15:11.303Z,25
2018-04-27T05:15:31.477Z,25
2018-04-27T05:15:51.655Z,25
2018-04-27T05:16:11.843Z,25
2018-04-27T05:16:32.016Z,25
2018-04-27T05:16:52.186Z,25
2018-04-27T05:17:12.388Z,25
2018-04-27T05:17:32.563Z,25
2018-04-27T05:17:52.733Z,25
2018-04-27T05:18:12.897Z,25
2018-04-27T05:18:33.063Z,25
2018-04-27T05:18:53.230Z,25
2018-04-27T05:19:13.404Z,25
2018-04-27T05:19:33.589Z,25
2018-04-27T05:19:53.847Z,25
2018-04-27T05:20:14.034Z,25
2018-04-27T05:20:34.220Z,25
2018-04-27T05:20:54.402Z,25
2018-04-27T05:21:14.584Z,30
2018-04-27T05:21:34.789Z,30
2018-04-27T05:21:55.011Z,30
2018-04-27T05:22:15.171Z,30
2018-04-27T05:22:35.339Z,30
2018-04-27T05:22:55.500Z,30
2018-04-27T05:23:15.679Z,30
2018-04-27T05:23:35.872Z,30
2018-04-27T05:23:56.033Z,30
2018-04-27T05:24:16.348Z,30
2018-04-27T05:24:36.429Z,30
2018-04-27T05:24:56.605Z,30
2018-04-27T05:25:16.787Z,30
2018-04-27T05:25:36.996Z,30
2018-04-27T05:25:57.169Z,30
2018-04-27T05:26:17.335Z,30
2018-04-27T05:26:37.503Z,30
2018-04-27T05:26:57.671Z,30
2018-04-27T05:27:17.824Z,30
2018-04-27T05:27:38.000Z,30
2018-04-27T05:27:58.207Z,30
2018-04-27T05:28:18.391Z,30
2018-04-27T05:28:38.562Z,30
2018-04-27T05:28:58.736Z,30
2018-04-27T05:29:18.900Z,30
2018-04-27T05:29:39.072Z,30
2018-04-27T05:29:59.239Z,30
2018-04-27T05:30:19.410Z,35
2018-04-27T05:30:39.573Z,35
2018-04-27T05:30:59.756Z,35
2018-04-27T05:31:19.932Z,35
2018-04-27T05:31:40.102Z,35
2018-04-27T05:32:00.284Z,35
2018-04-27T05:32:20.469Z,35
2018-04-27T05:32:40.639Z,35
2018-04-27T05:33:00.821Z,35
2018-04-27T05:33:21.011Z,35
2018-04-27T05:33:41.163Z,35
2018-04-27T05:34:01.330Z,35
2018-04-27T05:34:21.497Z,35
2018-04-27T05:34:41.704Z,35
2018-04-27T05:35:01.827Z,35
2018-04-27T05:35:22.011Z,35
2018-04-27T05:35:42.179Z,35
2018-04-27T05:36:02.339Z,30
2018-04-27T05:36:22.494Z,30
2018-04-27T05:36:42.690Z,30
2018-04-27T05:37:02.861Z,30
2018-04-27T05:37:23.045Z,30
2018-04-27T05:37:43.236Z,30
2018-04-27T05:38:03.406Z,30
2018-04-27T05:38:23.603Z,30
2018-04-27T05:38:43.742Z,30
2018-04-27T05:39:03.949Z,30
2018-04-27T05:39:24.130Z,30
2018-04-27T05:39:44.303Z,30
2018-04-27T05:40:04.463Z,30
2018-04-27T05:40:24.643Z,35
2018-04-27T05:40:44.813Z,35
2018-04-27T05:41:04.982Z,35
2018-04-27T05:41:25.137Z,35
2018-04-27T05:41:45.274Z,35
2018-04-27T05:42:05.486Z,35
2018-04-27T05:42:25.632Z,35
2018-04-27T05:42:45.819Z,35
2018-04-27T05:43:05.971Z,35
2018-04-27T05:43:26.131Z,35
2018-04-27T05:43:46.325Z,35
2018-04-27T05:44:06.515Z,35
2018-04-27T05:44:26.704Z,35
2018-04-27T05:44:46.881Z,35
2018-04-27T05:45:07.063Z,35
2018-04-27T05:45:27.226Z,35
2018-04-27T05:45:47.370Z,35
2018-04-27T05:46:07.555Z,35
2018-04-27T05:46:27.722Z,35
2018-04-27T05:46:47.906Z,35
2018-04-27T05:47:08.060Z,35
2018-04-27T05:47:28.228Z,35
2018-04-27T05:47:48.409Z,35
2018-04-27T05:48:08.597Z,35
2018-04-27T05:48:28.866Z,35
2018-04-27T05:48:49.032Z,35
2018-04-27T05:49:09.250Z,35
2018-04-27T05:49:29.389Z,35
2018-04-27T05:49:49.542Z,35
2018-04-27T05:50:09.705Z,35
2018-04-27T05:50:29.888Z,35
2018-04-27T05:50:50.063Z,35
2018-04-27T05:51:10.247Z,35
2018-04-27T05:51:30.395Z,35
2018-04-27T05:51:50.548Z,35
2018-04-27T05:52:10.721Z,35
2018-04-27T05:52:30.885Z,35
2018-04-27T05:52:51.081Z,35
2018-04-27T05:53:11.259Z,35
2018-04-27T05:53:31.416Z,35
2018-04-27T05:53:51.576Z,35
2018-04-27T05:54:11.743Z,35
2018-04-27T05:54:31.903Z,35
2018-04-27T05:54:52.088Z,35
2018-04-27T05:55:12.234Z,35
2018-04-27T05:55:32.465Z,35
2018-04-27T05:55:52.549Z,35
2018-04-27T05:56:12.753Z,35
2018-04-27T05:56:32.980Z,35
2018-04-27T05:56:53.171Z,35
2018-04-27T05:57:13.370Z,35
2018-04-27T05:57:33.564Z,35
2018-04-27T05:57:53.738Z,35
2018-04-27T05:58:13.896Z,35
2018-04-27T05:58:34.053Z,35
2018-04-27T05:58:54.223Z,35
2018-04-27T05:59:14.395Z,35
2018-04-27T05:59:34.558Z,35
2018-04-27T05:59:54.719Z,35
2018-04-27T06:00:14.885Z,35
2018-04-27T06:00:35.101Z,35
2018-04-27T06:00:55.263Z,35
2018-04-27T06:01:15.460Z,35
2018-04-27T06:01:35.629Z,35
2018-04-27T06:01:55.787Z,35
2018-04-27T06:02:15.937Z,35
2018-04-27T06:02:36.113Z,35
2018-04-27T06:02:56.294Z,35
2018-04-27T06:03:16.447Z,35
2018-04-27T06:03:36.612Z,35
2018-04-27T06:03:56.788Z,35
2018-04-27T06:04:17.006Z,35
2018-04-27T06:04:37.211Z,35
2018-04-27T06:04:57.384Z,35
2018-04-27T06:05:17.572Z,35
2018-04-27T06:05:37.767Z,35
2018-04-27T06:05:57.899Z,35
2018-04-27T06:06:18.075Z,35
2018-04-27T06:06:38.244Z,35
2018-04-27T06:06:58.404Z,35
2018-04-27T06:07:18.604Z,35
2018-04-27T06:07:38.776Z,35
2018-04-27T06:07:58.960Z,35
2018-04-27T06:08:19.137Z,35
2018-04-27T06:08:39.302Z,35
2018-04-27T06:08:59.475Z,35
2018-04-27T06:09:19.650Z,35
2018-04-27T06:09:39.841Z,35
2018-04-27T06:10:00.009Z,35
2018-04-27T06:10:20.218Z,35
2018-04-27T06:10:40.372Z,35
2018-04-27T06:11:00.546Z,35
2018-04-27T06:11:20.711Z,35
2018-04-27T06:11:40.888Z,35
2018-04-27T06:12:01.035Z,35
2018-04-27T06:12:21.201Z,35
2018-04-27T06:12:41.368Z,40
2018-04-27T06:13:01.553Z,40
2018-04-27T06:13:21.733Z,40
2018-04-27T06:13:41.957Z,40
2018-04-27T06:14:02.103Z,40
2018-04-27T06:14:22.300Z,40
2018-04-27T06:14:42.492Z,40
2018-04-27T06:15:02.667Z,40
2018-04-27T06:15:22.838Z,40
2018-04-27T06:15:43.009Z,40
2018-04-27T06:16:03.221Z,40
2018-04-27T06:16:23.401Z,40
2018-04-27T06:16:43.575Z,40
2018-04-27T06:17:03.736Z,40
2018-04-27T06:17:23.923Z,40
2018-04-27T06:17:44.089Z,40
2018-04-27T06:18:04.320Z,40
2018-04-27T06:18:24.499Z,40
2018-04-27T06:18:44.670Z,40
2018-04-27T06:19:04.842Z,40
2018-04-27T06:19:25.014Z,40
2018-04-27T06:19:45.188Z,40
2018-04-27T06:20:05.351Z,40
2018-04-27T06:20:25.496Z,40
2018-04-27T06:20:45.689Z,40
2018-04-27T06:21:05.889Z,40
2018-04-27T06:21:26.057Z,40
2018-04-27T06:21:46.231Z,40
2018-04-27T06:22:06.423Z,40
2018-04-27T06:22:26.608Z,40
2018-04-27T06:22:46.775Z,40
2018-04-27T06:23:06.920Z,40
2018-04-27T06:23:27.085Z,40
2018-04-27T06:23:47.244Z,40
2018-04-27T06:24:07.396Z,40
2018-04-27T06:24:27.617Z,40
2018-04-27T06:24:47.866Z,40
2018-04-27T06:25:08.421Z,40
2018-04-27T06:25:28.725Z,40
2018-04-27T06:25:49.023Z,40
2018-04-27T06:26:09.124Z,40
2018-04-27T06:26:29.323Z,40
2018-04-27T06:26:49.522Z,40
2018-04-27T06:27:09.687Z,40
2018-04-27T06:27:29.843Z,40
2018-04-27T06:27:50.017Z,40
2018-04-27T06:28:10.167Z,40
2018-04-27T06:28:30.344Z,40
2018-04-27T06:28:50.527Z,40
2018-04-27T06:29:10.705Z,40
2018-04-27T06:29:30.879Z,40
2018-04-27T06:29:51.029Z,40
2018-04-27T06:30:11.185Z,40
2018-04-27T06:30:31.343Z,40
2018-04-27T06:30:51.493Z,40
2018-04-27T06:31:11.717Z,40
2018-04-27T06:31:31.874Z,40
2018-04-27T06:31:52.118Z,40
2018-04-27T06:32:12.320Z,40
2018-04-27T06:32:32.467Z,40
2018-04-27T06:32:52.629Z,40
2018-04-27T06:33:12.815Z,40
2018-04-27T06:33:32.985Z,40
2018-04-27T06:33:53.166Z,40
2018-04-27T06:34:13.360Z,40
2018-04-27T06:34:33.535Z,40
2018-04-27T06:34:54.419Z,40
2018-04-27T06:35:14.592Z,40
2018-04-27T06:35:34.925Z,40
2018-04-27T06:35:55.093Z,40
2018-04-27T06:36:15.312Z,40
2018-04-27T06:36:35.469Z,40
2018-04-27T06:36:55.667Z,40
2018-04-27T06:37:15.850Z,40
2018-04-27T06:37:35.973Z,40
2018-04-27T06:37:56.133Z,40
2018-04-27T06:38:16.313Z,40
2018-04-27T06:38:36.496Z,40
2018-04-27T06:38:56.688Z,40
2018-04-27T06:39:16.850Z,40
2018-04-27T06:39:37.019Z,40
2018-04-27T06:39:57.190Z,40
2018-04-27T06:40:17.361Z,40
2018-04-27T06:40:37.538Z,40
2018-04-27T06:40:57.704Z,40
2018-04-27T06:41:17.842Z,40
2018-04-27T06:41:37.998Z,40
2018-04-27T06:41:58.177Z,40
2018-04-27T06:42:18.364Z,40
2018-04-27T06:42:38.546Z,40
2018-04-27T06:42:58.694Z,40
2018-04-27T06:43:18.858Z,40
2018-04-27T06:43:39.014Z,40
2018-04-27T06:43:59.237Z,40
2018-04-27T06:44:19.362Z,40
2018-04-27T06:44:39.574Z,35
2018-04-27T06:44:59.763Z,35
2018-04-27T06:45:19.936Z,40
2018-04-27T06:45:40.156Z,40
2018-04-27T06:46:00.341Z,40
2018-04-27T06:46:20.503Z,40
2018-04-27T06:46:40.729Z,40
2018-04-27T06:47:00.873Z,40
2018-04-27T06:47:21.059Z,40
2018-04-27T06:47:41.251Z,40
2018-04-27T06:48:01.409Z,40
2018-04-27T06:48:21.590Z,40
2018-04-27T06:48:41.779Z,40
2018-04-27T06:49:01.960Z,40
2018-04-27T06:49:22.122Z,40
2018-04-27T06:49:42.331Z,40
2018-04-27T06:50:02.551Z,40
2018-04-27T06:50:22.715Z,35
2018-04-27T06:50:42.913Z,35
2018-04-27T06:51:03.097Z,35
2018-04-27T06:51:23.272Z,35
2018-04-27T06:51:43.437Z,35
2018-04-27T06:52:03.597Z,35
2018-04-27T06:52:23.788Z,35
2018-04-27T06:52:43.922Z,35
2018-04-27T06:53:04.067Z,35
2018-04-27T06:53:24.247Z,35
2018-04-27T06:53:44.433Z,35
2018-04-27T06:54:04.612Z,40
2018-04-27T06:54:24.805Z,40
2018-04-27T06:54:44.964Z,40
2018-04-27T06:55:05.165Z,40
2018-04-27T06:55:25.310Z,40
2018-04-27T06:55:45.508Z,40
2018-04-27T06:56:05.673Z,40
2018-04-27T06:56:25.919Z,40
2018-04-27T06:56:46.075Z,40
2018-04-27T06:57:06.271Z,40
2018-04-27T06:57:26.455Z,40
2018-04-27T06:57:46.687Z,40
2018-04-27T06:58:06.900Z,40
2018-04-27T06:58:27.260Z,40
2018-04-27T06:58:47.571Z,40
2018-04-27T06:59:07.942Z,40
2018-04-27T06:59:28.308Z,35
2018-04-27T06:59:48.500Z,35
2018-04-27T07:00:08.736Z,35
2018-04-27T07:00:29.054Z,35
2018-04-27T07:00:49.242Z,35
2018-04-27T07:01:09.509Z,35
2018-04-27T07:01:29.659Z,35
2018-04-27T07:01:49.836Z,35
2018-04-27T07:02:10.034Z,35
2018-04-27T07:02:30.036Z,35
2018-04-27T07:02:50.294Z,35
2018-04-27T07:03:10.524Z,35
2018-04-27T07:03:30.734Z,35
2018-04-27T07:03:50.913Z,35
2018-04-27T07:04:11.120Z,35
2018-04-27T07:04:31.358Z,35
2018-04-27T07:04:51.542Z,35
2018-04-27T07:05:11.770Z,35
2018-04-27T07:05:31.982Z,35
2018-04-27T07:05:52.380Z,35
2018-04-27T07:06:12.627Z,35
2018-04-27T07:06:32.979Z,30
2018-04-27T07:06:53.171Z,30
2018-04-27T07:07:13.376Z,35
2018-04-27T07:07:33.574Z,35
2018-04-27T07:07:53.735Z,35
2018-04-27T07:08:13.904Z,35
2018-04-27T07:08:34.081Z,35
2018-04-27T07:08:54.242Z,35
2018-04-27T07:09:14.404Z,35
2018-04-27T07:09:34.571Z,35
2018-04-27T07:09:54.858Z,35
2018-04-27T07:10:15.074Z,35
2018-04-27T07:10:35.353Z,35
2018-04-27T07:10:55.536Z,35
2018-04-27T07:11:15.705Z,35
2018-04-27T07:11:36.004Z,35
2018-04-27T07:11:56.120Z,35
2018-04-27T07:12:16.318Z,35
2018-04-27T07:12:36.512Z,40
2018-04-27T07:12:56.738Z,35
2018-04-27T07:13:16.947Z,40
2018-04-27T07:13:37.113Z,40
2018-04-27T07:13:57.310Z,40
2018-04-27T07:14:17.490Z,40
2018-04-27T07:14:37.673Z,40
2018-04-27T07:14:57.845Z,40
2018-04-27T07:15:18.036Z,40
2018-04-27T07:15:38.239Z,40
2018-04-27T07:15:58.462Z,40
2018-04-27T07:16:18.642Z,40
2018-04-27T07:16:38.820Z,40
2018-04-27T07:16:59.233Z,40
2018-04-27T07:17:19.631Z,40
2018-04-27T07:17:39.871Z,40
2018-04-27T07:18:00.225Z,40
2018-04-27T07:18:20.572Z,40
2018-04-27T07:18:40.716Z,40
2018-04-27T07:19:00.951Z,40
2018-04-27T07:19:21.142Z,40
2018-04-27T07:19:41.307Z,40
2018-04-27T07:20:01.458Z,40
2018-04-27T07:20:21.635Z,40
2018-04-27T07:20:41.961Z,40
2018-04-27T07:21:02.240Z,40
2018-04-27T07:21:22.503Z,40
2018-04-27T07:21:42.892Z,45
2018-04-27T07:22:03.155Z,45
2018-04-27T07:22:23.371Z,45
2018-04-27T07:22:43.634Z,45
2018-04-27T07:23:04.014Z,50
2018-04-27T07:23:24.340Z,50
2018-04-27T07:23:44.615Z,50
2018-04-27T07:24:04.860Z,55
2018-04-27T07:24:25.056Z,50
2018-04-27T07:24:45.246Z,55
2018-04-27T07:25:05.512Z,55
2018-04-27T07:25:25.798Z,55
2018-04-27T07:25:45.977Z,60
2018-04-27T07:26:06.130Z,60
2018-04-27T07:26:26.339Z,60
2018-04-27T07:26:46.495Z,60
2018-04-27T07:27:06.724Z,60
2018-04-27T07:27:27.054Z,60
2018-04-27T07:27:47.394Z,60
2018-04-27T07:28:07.617Z,60
2018-04-27T07:28:27.939Z,60
2018-04-27T07:28:48.113Z,60
2018-04-27T07:29:08.289Z,60
2018-04-27T07:29:28.491Z,60
2018-04-27T07:29:48.721Z,60
2018-04-27T07:30:08.950Z,60
2018-04-27T07:30:29.138Z,60
2018-04-27T07:30:49.301Z,60
2018-04-27T07:31:09.474Z,60
2018-04-27T07:31:29.672Z,60
2018-04-27T07:31:49.984Z,60
2018-04-27T07:32:10.220Z,60
2018-04-27T07:32:30.388Z,60
2018-04-27T07:32:50.642Z,60
2018-04-27T07:33:10.945Z,60
2018-04-27T07:33:31.236Z,60
2018-04-27T07:33:51.411Z,60
2018-04-27T07:34:11.624Z,60
2018-04-27T07:34:31.799Z,60
2018-04-27T07:34:52.198Z,60
2018-04-27T07:35:12.392Z,60
2018-04-27T07:35:32.574Z,60
2018-04-27T07:35:52.787Z,60
2018-04-27T07:36:12.972Z,60
2018-04-27T07:36:33.194Z,60
2018-04-27T07:36:53.369Z,60
2018-04-27T07:37:13.563Z,60
2018-04-27T07:37:33.705Z,60
2018-04-27T07:37:53.882Z,60
2018-04-27T07:38:14.236Z,60
2018-04-27T07:38:34.431Z,60
2018-04-27T07:38:54.642Z,65
2018-04-27T07:39:14.936Z,65
2018-04-27T07:39:35.172Z,65
2018-04-27T07:39:55.389Z,65
2018-04-27T07:40:15.679Z,65
2018-04-27T07:40:35.927Z,65
2018-04-27T07:40:56.214Z,65
2018-04-27T07:41:16.383Z,65
2018-04-27T07:41:36.605Z,65
2018-04-27T07:41:56.834Z,65
2018-04-27T07:42:17.101Z,65
2018-04-27T07:42:37.287Z,60
2018-04-27T07:42:57.453Z,60
2018-04-27T07:43:17.625Z,60
2018-04-27T07:43:37.801Z,60
2018-04-27T07:43:58.022Z,60
2018-04-27T07:44:18.468Z,60
2018-04-27T07:44:38.830Z,60
2018-04-27T07:44:59.066Z,60
2018-04-27T07:45:19.474Z,60
2018-04-27T07:45:39.709Z,60
2018-04-27T07:45:59.993Z,60
2018-04-27T07:46:20.223Z,60
2018-04-27T07:46:40.432Z,60
2018-04-27T07:47:00.597Z,60
2018-04-27T07:47:20.790Z,60
2018-04-27T07:47:41.028Z,55
2018-04-27T07:48:01.198Z,55
2018-04-27T07:48:21.504Z,55
2018-04-27T07:48:41.694Z,55
2018-04-27T07:49:01.933Z,55
2018-04-27T07:49:22.183Z,55
2018-04-27T07:49:42.420Z,55
2018-04-27T07:50:02.723Z,55
2018-04-27T07:50:23.009Z,55
2018-04-27T07:50:43.253Z,55
2018-04-27T07:51:03.433Z,55
2018-04-27T07:51:23.631Z,55
2018-04-27T07:51:43.830Z,60
2018-04-27T07:52:04.092Z,60
2018-04-27T07:52:24.377Z,60
2018-04-27T07:52:44.725Z,60
2018-04-27T07:53:05.033Z,55
2018-04-27T07:53:25.315Z,55
2018-04-27T07:53:46.586Z,55
2018-04-27T07:54:06.760Z,55
2018-04-27T07:54:27.060Z,55
2018-04-27T07:54:47.307Z,60
2018-04-27T07:55:07.625Z,60
2018-04-27T07:55:27.850Z,65
2018-04-27T07:55:48.051Z,65
2018-04-27T07:56:08.230Z,65
2018-04-27T07:56:28.414Z,65
2018-04-27T07:56:48.600Z,65
2018-04-27T07:57:08.804Z,65
2018-04-27T07:57:29.050Z,65
2018-04-27T07:57:49.309Z,65
2018-04-27T07:58:09.542Z,70
2018-04-27T07:58:29.771Z,65
2018-04-27T07:58:50.076Z,65
2018-04-27T07:59:10.433Z,70
2018-04-27T07:59:30.643Z,70
2018-04-27T07:59:51.165Z,70
2018-04-27T08:00:11.425Z,70
2018-04-27T08:00:31.591Z,70
2018-04-27T08:00:51.772Z,70
2018-04-27T08:01:11.992Z,70
2018-04-27T08:01:32.173Z,70
2018-04-27T08:01:52.368Z,70
2018-04-27T08:02:12.752Z,70
2018-04-27T08:02:33.098Z,70
2018-04-27T08:02:53.356Z,70
2018-04-27T08:03:13.533Z,75
2018-04-27T08:03:33.733Z,70
2018-04-27T08:03:53.938Z,75
2018-04-27T08:04:14.114Z,75
2018-04-27T08:04:34.244Z,75
2018-04-27T08:04:54.432Z,75
2018-04-27T08:05:14.614Z,75
2018-04-27T08:05:34.769Z,75
2018-04-27T08:05:54.964Z,75
2018-04-27T08:06:15.132Z,75
2018-04-27T08:06:35.482Z,75
2018-04-27T08:06:55.962Z,75
2018-04-27T08:07:16.448Z,75
2018-04-27T08:07:36.681Z,75
2018-04-27T08:07:56.974Z,75
2018-04-27T08:08:17.270Z,75
2018-04-27T08:08:37.563Z,75
2018-04-27T08:08:58.030Z,75
2018-04-27T08:09:18.348Z,75
2018-04-27T08:09:38.544Z,75
2018-04-27T08:09:58.876Z,75
2018-04-27T08:10:19.376Z,75
2018-04-27T08:10:39.736Z,75
2018-04-27T08:11:00.130Z,75
2018-04-27T08:11:20.480Z,75
2018-04-27T08:11:40.791Z,75
2018-04-27T08:12:01.047Z,75
2018-04-27T08:12:21.235Z,75
2018-04-27T08:12:41.439Z,75
2018-04-27T08:13:01.696Z,75
2018-04-27T08:13:22.005Z,75
2018-04-27T08:13:42.337Z,75
2018-04-27T08:14:02.717Z,75
2018-04-27T08:14:22.952Z,75
2018-04-27T08:14:43.195Z,75
2018-04-27T08:15:03.564Z,75
2018-04-27T08:15:23.778Z,75
2018-04-27T08:15:44.011Z,75
2018-04-27T08:16:04.331Z,75
2018-04-27T08:16:24.588Z,75
2018-04-27T08:16:44.887Z,75
2018-04-27T08:17:05.256Z,75
2018-04-27T08:17:25.579Z,75
2018-04-27T08:17:45.855Z,75
2018-04-27T08:18:06.270Z,75
2018-04-27T08:18:26.522Z,75
2018-04-27T08:18:46.801Z,75
2018-04-27T08:19:07.269Z,75
2018-04-27T08:19:27.577Z,75
2018-04-27T08:19:47.842Z,75
2018-04-27T08:20:08.102Z,75
2018-04-27T08:20:28.285Z,75
2018-04-27T08:20:48.606Z,75
2018-04-27T08:21:08.901Z,75
2018-04-27T08:21:29.202Z,75
2018-04-27T08:21:49.484Z,75
2018-04-27T08:22:09.784Z,75
2018-04-27T08:22:30.265Z,75
2018-04-27T08:22:50.578Z,70
2018-04-27T08:23:10.876Z,70
2018-04-27T08:23:31.131Z,75
2018-04-27T08:23:51.263Z,75
2018-04-27T08:24:11.505Z,75
2018-04-27T08:24:31.980Z,70
2018-04-27T08:24:52.320Z,70
2018-04-27T08:25:12.663Z,70
2018-04-27T08:25:32.839Z,70
2018-04-27T08:25:53.151Z,70
2018-04-27T08:26:13.531Z,70
2018-04-27T08:26:33.824Z,70
2018-04-27T08:26:54.079Z,70
2018-04-27T08:27:14.368Z,70
2018-04-27T08:27:34.749Z,65
2018-04-27T08:27:55.248Z,65
2018-04-27T08:28:15.662Z,65
2018-04-27T08:28:35.969Z,70
2018-04-27T08:28:56.301Z,70
2018-04-27T08:29:16.748Z,65
2018-04-27T08:29:37.027Z,65
2018-04-27T08:29:57.269Z,65
2018-04-27T08:30:17.770Z,65
2018-04-27T08:30:38.043Z,65
2018-04-27T08:30:58.392Z,65
2018-04-27T08:31:18.656Z,70
2018-04-27T08:31:38.965Z,70
2018-04-27T08:31:59.264Z,65
2018-04-27T08:32:19.626Z,65
2018-04-27T08:32:39.919Z,65
2018-04-27T08:33:00.365Z,65
2018-04-27T08:33:20.732Z,65
2018-04-27T08:33:41.003Z,65
2018-04-27T08:34:01.381Z,65
2018-04-27T08:34:21.710Z,65
2018-04-27T08:34:41.957Z,65
2018-04-27T08:35:02.310Z,65
2018-04-27T08:35:22.562Z,65
2018-04-27T08:35:43.071Z,65
2018-04-27T08:36:03.469Z,65
2018-04-27T08:36:23.725Z,65
2018-04-27T08:36:44.125Z,60
2018-04-27T08:37:04.407Z,65
2018-04-27T08:37:24.647Z,65
2018-04-27T08:37:45.108Z,65
2018-04-27T08:38:05.556Z,65
2018-04-27T08:38:25.983Z,65
2018-04-27T08:38:46.301Z,65
2018-04-27T08:39:06.634Z,65
2018-04-27T08:39:27.027Z,65
2018-04-27T08:39:47.322Z,65
2018-04-27T08:40:07.664Z,65
2018-04-27T08:40:27.949Z,65
2018-04-27T08:40:48.232Z,60
2018-04-27T08:41:08.555Z,60
2018-04-27T08:41:28.932Z,60
2018-04-27T08:41:49.369Z,60
2018-04-27T08:42:09.661Z,60
2018-04-27T08:42:30.103Z,60
2018-04-27T08:42:50.430Z,60
2018-04-27T08:43:10.696Z,60
2018-04-27T08:43:30.977Z,60
2018-04-27T08:43:51.304Z,60
2018-04-27T08:44:11.564Z,65
2018-04-27T08:44:31.909Z,65
2018-04-27T08:44:52.266Z,65
2018-04-27T08:45:12.504Z,60
2018-04-27T08:45:32.818Z,60
2018-04-27T08:45:53.173Z,60
2018-04-27T08:46:13.553Z,60
2018-04-27T08:46:34.000Z,60
2018-04-27T08:46:54.404Z,60
2018-04-27T08:47:14.866Z,60
2018-04-27T08:47:35.187Z,60
2018-04-27T08:47:55.556Z,55
2018-04-27T08:48:16.112Z,60
2018-04-27T08:48:36.540Z,60
2018-04-27T08:48:57.163Z,60
2018-04-27T08:49:17.528Z,60
2018-04-27T08:49:38.724Z,60
2018-04-27T08:49:59.268Z,60
2018-04-27T08:50:19.857Z,60
2018-04-27T08:50:40.275Z,60
2018-04-27T08:51:00.832Z,60
2018-04-27T08:51:21.145Z,60
2018-04-27T08:51:41.443Z,60
2018-04-27T08:52:01.867Z,60
2018-04-27T08:52:22.227Z,60
2018-04-27T08:52:42.526Z,60
2018-04-27T08:53:02.962Z,55
2018-04-27T08:53:23.296Z,55
2018-04-27T08:53:43.833Z,55
2018-04-27T08:54:04.178Z,55
2018-04-27T08:54:24.552Z,55
2018-04-27T08:54:45.004Z,55
2018-04-27T08:55:05.346Z,55
2018-04-27T08:55:25.825Z,55
2018-04-27T08:55:46.404Z,50
2018-04-27T08:56:06.776Z,50
2018-04-27T08:56:27.194Z,50
2018-04-27T08:56:47.569Z,50
2018-04-27T08:57:07.869Z,50
2018-04-27T08:57:28.315Z,45
2018-04-27T08:57:48.707Z,50
2018-04-27T08:58:09.123Z,50
2018-04-27T08:58:29.520Z,50
2018-04-27T08:58:49.894Z,50
2018-04-27T08:59:10.360Z,50
2018-04-27T08:59:30.593Z,50
2018-04-27T08:59:51.008Z,50
2018-04-27T09:00:11.427Z,50
2018-04-27T09:00:31.833Z,50
2018-04-27T09:00:52.290Z,55
2018-04-27T09:01:12.745Z,50
2018-04-27T09:01:33.073Z,50
2018-04-27T09:01:53.419Z,50
2018-04-27T09:02:13.755Z,50
2018-04-27T09:02:34.115Z,50
2018-04-27T09:02:54.535Z,55
2018-04-27T09:03:14.941Z,55
2018-04-27T09:03:35.348Z,50
2018-04-27T09:03:55.822Z,55
2018-04-27T09:04:16.141Z,55
2018-04-27T09:04:36.450Z,55
2018-04-27T09:04:56.824Z,50
2018-04-27T09:05:17.172Z,55
2018-04-27T09:05:37.605Z,50
2018-04-27T09:05:58.014Z,55
2018-04-27T09:06:18.660Z,50
2018-04-27T09:06:39.276Z,50
2018-04-27T09:06:59.689Z,55
2018-04-27T09:07:20.015Z,50
2018-04-27T09:07:40.390Z,50
2018-04-27T09:08:00.728Z,50
2018-04-27T09:08:21.120Z,50
2018-04-27T09:08:41.507Z,55
2018-04-27T09:09:01.835Z,50
2018-04-27T09:09:22.176Z,50
2018-04-27T09:09:42.573Z,50
2018-04-27T09:10:03.014Z,50
2018-04-27T09:10:23.510Z,50
2018-04-27T09:10:43.855Z,50
2018-04-27T09:11:04.262Z,50
2018-04-27T09:11:24.619Z,45
2018-04-27T09:11:45.262Z,45
2018-04-27T09:12:05.688Z,45
2018-04-27T09:12:26.040Z,45
2018-04-27T09:12:46.549Z,45
2018-04-27T09:13:06.824Z,50
2018-04-27T09:13:27.347Z,45
2018-04-27T09:13:47.889Z,45
2018-04-27T09:14:08.266Z,45
2018-04-27T09:14:28.654Z,45
2018-04-27T09:14:48.910Z,45
2018-04-27T09:15:09.222Z,45
2018-04-27T09:15:29.594Z,45
2018-04-27T09:15:49.931Z,45
2018-04-27T09:16:10.473Z,45
2018-04-27T09:16:30.846Z,45
2018-04-27T09:16:51.153Z,45
2018-04-27T09:17:11.461Z,45
2018-04-27T09:17:31.709Z,45
2018-04-27T09:17:52.701Z,45
2018-04-27T09:18:12.998Z,45
2018-04-27T09:18:33.280Z,45
2018-04-27T09:18:53.654Z,45
2018-04-27T09:19:14.252Z,45
2018-04-27T09:19:34.562Z,45
2018-04-27T09:19:54.913Z,45
2018-04-27T09:20:15.232Z,45
2018-04-27T09:20:35.544Z,45
2018-04-27T09:20:56.150Z,45
2018-04-27T09:21:16.396Z,45
2018-04-27T09:21:36.694Z,45
2018-04-27T09:21:56.917Z,45
2018-04-27T09:22:17.309Z,45
2018-04-27T09:22:37.560Z,45
2018-04-27T09:22:57.916Z,50
2018-04-27T09:23:18.178Z,50
2018-04-27T09:23:38.359Z,45
2018-04-27T09:23:58.776Z,45
2018-04-27T09:24:19.139Z,45